sensor_id;sensor_type;location;lat;lon;timestamp;temperature;humidity
14527;DHT22;7350;51.208;4.238;2022-11-20T00:00:19;6.10;99.90
14527;DHT22;7350;51.208;4.238;2022-11-20T00:02:46;6.00;99.90
14527;DHT22;7350;51.208;4.238;2022-11-20T00:05:13;6.00;99.90
14527;DHT22;7350;51.208;4.238;2022-11-20T00:07:40;6.00;99.90
14527;DHT22;7350;51.208;4.238;2022-11-20T00:10:08;5.90;99.90
14527;DHT22;7350;51.208;4.238;2022-11-20T00:12:35;5.90;99.90
14527;DHT22;7350;51.208;4.238;2022-11-20T00:15:03;5.70;99.90
14527;DHT22;7350;51.208;4.238;2022-11-20T00:17:30;5.80;99.90
14527;DHT22;7350;51.208;4.238;2022-11-20T00:19:57;5.90;99.90
14527;DHT22;7350;51.208;4.238;2022-11-20T00:22:24;6.20;99.90
14527;DHT22;7350;51.208;4.238;2022-11-20T00:24:51;6.30;99.90
14527;DHT22;7350;51.208;4.238;2022-11-20T00:27:18;6.40;99.90
14527;DHT22;7350;51.208;4.238;2022-11-20T00:29:45;6.00;99.90
14527;DHT22;7350;51.208;4.238;2022-11-20T00:32:13;6.10;99.90
14527;DHT22;7350;51.208;4.238;2022-11-20T00:34:40;6.40;99.90
14527;DHT22;7350;51.208;4.238;2022-11-20T00:37:07;6.30;99.90
14527;DHT22;7350;51.208;4.238;2022-11-20T00:39:34;6.20;99.90
14527;DHT22;7350;51.208;4.238;2022-11-20T00:42:01;6.20;99.90
14527;DHT22;7350;51.208;4.238;2022-11-20T00:44:27;6.40;99.90
14527;DHT22;7350;51.208;4.238;2022-11-20T00:46:54;6.40;99.90
14527;DHT22;7350;51.208;4.238;2022-11-20T00:49:23;6.50;99.90
14527;DHT22;7350;51.208;4.238;2022-11-20T00:51:50;6.30;99.90
14527;DHT22;7350;51.208;4.238;2022-11-20T00:54:16;6.30;99.90
14527;DHT22;7350;51.208;4.238;2022-11-20T00:56:43;6.30;99.90
14527;DHT22;7350;51.208;4.238;2022-11-20T00:59:10;6.10;99.90
14527;DHT22;7350;51.208;4.238;2022-11-20T01:01:37;6.10;99.90
14527;DHT22;7350;51.208;4.238;2022-11-20T01:04:05;6.10;99.90
14527;DHT22;7350;51.208;4.238;2022-11-20T01:06:35;6.20;99.90
14527;DHT22;7350;51.208;4.238;2022-11-20T01:09:05;6.00;99.90
14527;DHT22;7350;51.208;4.238;2022-11-20T01:11:34;6.10;99.90
14527;DHT22;7350;51.208;4.238;2022-11-20T01:14:04;6.20;99.90
14527;DHT22;7350;51.208;4.238;2022-11-20T01:16:33;6.20;99.90
14527;DHT22;7350;51.208;4.238;2022-11-20T01:19:02;6.20;99.90
14527;DHT22;7350;51.208;4.238;2022-11-20T01:21:31;6.00;99.90
14527;DHT22;7350;51.208;4.238;2022-11-20T01:24:00;5.90;99.90
14527;DHT22;7350;51.208;4.238;2022-11-20T01:26:28;5.90;99.90
14527;DHT22;7350;51.208;4.238;2022-11-20T01:28:56;5.50;99.90
14527;DHT22;7350;51.208;4.238;2022-11-20T01:31:25;5.60;99.90
14527;DHT22;7350;51.208;4.238;2022-11-20T01:33:54;5.70;99.90
14527;DHT22;7350;51.208;4.238;2022-11-20T01:36:24;5.70;99.90
14527;DHT22;7350;51.208;4.238;2022-11-20T01:38:51;5.90;99.90
14527;DHT22;7350;51.208;4.238;2022-11-20T01:41:20;5.70;99.90
14527;DHT22;7350;51.208;4.238;2022-11-20T01:44:02;5.70;99.90
14527;DHT22;7350;51.208;4.238;2022-11-20T01:46:29;5.60;99.90
14527;DHT22;7350;51.208;4.238;2022-11-20T01:49:00;5.60;99.90
14527;DHT22;7350;51.208;4.238;2022-11-20T01:51:34;5.50;99.90
14527;DHT22;7350;51.208;4.238;2022-11-20T01:54:05;5.40;99.90
14527;DHT22;7350;51.208;4.238;2022-11-20T01:56:38;5.50;99.90
14527;DHT22;7350;51.208;4.238;2022-11-20T01:59:07;5.70;99.90
14527;DHT22;7350;51.208;4.238;2022-11-20T02:01:34;5.70;99.90
14527;DHT22;7350;51.208;4.238;2022-11-20T02:04:02;5.80;99.90
14527;DHT22;7350;51.208;4.238;2022-11-20T02:06:31;5.80;99.90
14527;DHT22;7350;51.208;4.238;2022-11-20T02:09:00;5.80;99.90
14527;DHT22;7350;51.208;4.238;2022-11-20T02:11:26;5.80;99.90
14527;DHT22;7350;51.208;4.238;2022-11-20T02:13:55;5.80;99.90
14527;DHT22;7350;51.208;4.238;2022-11-20T02:16:24;6.00;99.90
14527;DHT22;7350;51.208;4.238;2022-11-20T02:18:52;6.00;99.90
14527;DHT22;7350;51.208;4.238;2022-11-20T02:21:34;5.90;99.90
14527;DHT22;7350;51.208;4.238;2022-11-20T02:24:05;5.90;99.90
14527;DHT22;7350;51.208;4.238;2022-11-20T02:26:35;5.80;99.90
14527;DHT22;7350;51.208;4.238;2022-11-20T02:29:04;5.80;99.90
14527;DHT22;7350;51.208;4.238;2022-11-20T02:31:37;5.80;99.90
14527;DHT22;7350;51.208;4.238;2022-11-20T02:34:05;5.60;99.90
14527;DHT22;7350;51.208;4.238;2022-11-20T02:36:32;5.70;99.90
14527;DHT22;7350;51.208;4.238;2022-11-20T02:39:01;5.80;99.90
14527;DHT22;7350;51.208;4.238;2022-11-20T02:41:33;5.80;99.90
14527;DHT22;7350;51.208;4.238;2022-11-20T02:44:01;5.80;99.90
14527;DHT22;7350;51.208;4.238;2022-11-20T02:46:28;5.80;99.90
14527;DHT22;7350;51.208;4.238;2022-11-20T02:48:55;5.80;99.90
14527;DHT22;7350;51.208;4.238;2022-11-20T02:51:22;5.80;99.90
14527;DHT22;7350;51.208;4.238;2022-11-20T02:53:49;6.00;99.90
14527;DHT22;7350;51.208;4.238;2022-11-20T02:56:17;6.10;99.90
14527;DHT22;7350;51.208;4.238;2022-11-20T02:58:45;6.10;99.90
14527;DHT22;7350;51.208;4.238;2022-11-20T03:01:12;5.80;99.90
14527;DHT22;7350;51.208;4.238;2022-11-20T03:03:39;6.10;99.90
14527;DHT22;7350;51.208;4.238;2022-11-20T03:06:06;6.10;99.90
14527;DHT22;7350;51.208;4.238;2022-11-20T03:08:33;6.10;99.90
14527;DHT22;7350;51.208;4.238;2022-11-20T03:11:03;6.00;99.90
14527;DHT22;7350;51.208;4.238;2022-11-20T03:13:31;6.00;99.90
14527;DHT22;7350;51.208;4.238;2022-11-20T03:16:05;6.10;99.90
14527;DHT22;7350;51.208;4.238;2022-11-20T03:18:32;6.10;99.90
14527;DHT22;7350;51.208;4.238;2022-11-20T03:20:59;6.00;99.90
14527;DHT22;7350;51.208;4.238;2022-11-20T03:23:29;6.20;99.90
14527;DHT22;7350;51.208;4.238;2022-11-20T03:25:56;6.20;99.90
14527;DHT22;7350;51.208;4.238;2022-11-20T03:28:22;6.30;99.90
14527;DHT22;7350;51.208;4.238;2022-11-20T03:30:49;6.30;99.90
14527;DHT22;7350;51.208;4.238;2022-11-20T03:33:18;6.50;99.90
14527;DHT22;7350;51.208;4.238;2022-11-20T03:35:44;6.50;99.90
14527;DHT22;7350;51.208;4.238;2022-11-20T03:38:11;6.60;99.90
14527;DHT22;7350;51.208;4.238;2022-11-20T03:40:38;6.50;99.90
14527;DHT22;7350;51.208;4.238;2022-11-20T03:43:05;6.40;99.90
14527;DHT22;7350;51.208;4.238;2022-11-20T03:45:32;6.30;99.90
14527;DHT22;7350;51.208;4.238;2022-11-20T03:47:59;6.30;99.90
14527;DHT22;7350;51.208;4.238;2022-11-20T03:50:27;6.20;99.90
14527;DHT22;7350;51.208;4.238;2022-11-20T03:52:54;6.10;99.90
14527;DHT22;7350;51.208;4.238;2022-11-20T03:55:21;6.20;99.90
14527;DHT22;7350;51.208;4.238;2022-11-20T03:57:48;6.10;99.90
14527;DHT22;7350;51.208;4.238;2022-11-20T04:00:16;6.00;99.90
14527;DHT22;7350;51.208;4.238;2022-11-20T04:02:42;6.20;99.90
14527;DHT22;7350;51.208;4.238;2022-11-20T04:05:09;6.00;99.90
14527;DHT22;7350;51.208;4.238;2022-11-20T04:07:38;5.90;99.90
14527;DHT22;7350;51.208;4.238;2022-11-20T04:10:05;5.90;99.90
14527;DHT22;7350;51.208;4.238;2022-11-20T04:12:33;6.00;99.90
14527;DHT22;7350;51.208;4.238;2022-11-20T04:15:00;5.80;99.90
14527;DHT22;7350;51.208;4.238;2022-11-20T04:17:27;5.70;99.90
14527;DHT22;7350;51.208;4.238;2022-11-20T04:19:54;5.70;99.90
14527;DHT22;7350;51.208;4.238;2022-11-20T04:22:20;5.60;99.90
14527;DHT22;7350;51.208;4.238;2022-11-20T04:24:49;5.60;99.90
14527;DHT22;7350;51.208;4.238;2022-11-20T04:27:16;5.50;99.90
14527;DHT22;7350;51.208;4.238;2022-11-20T04:29:43;5.30;99.90
14527;DHT22;7350;51.208;4.238;2022-11-20T04:32:09;5.40;99.90
14527;DHT22;7350;51.208;4.238;2022-11-20T04:34:36;5.40;99.90
14527;DHT22;7350;51.208;4.238;2022-11-20T04:37:03;5.30;99.90
14527;DHT22;7350;51.208;4.238;2022-11-20T04:39:30;5.40;99.90
14527;DHT22;7350;51.208;4.238;2022-11-20T04:41:58;5.30;99.90
14527;DHT22;7350;51.208;4.238;2022-11-20T04:44:39;5.40;99.90
14527;DHT22;7350;51.208;4.238;2022-11-20T04:47:06;5.40;99.90
14527;DHT22;7350;51.208;4.238;2022-11-20T04:49:33;5.20;99.90
14527;DHT22;7350;51.208;4.238;2022-11-20T04:52:00;5.20;99.90
14527;DHT22;7350;51.208;4.238;2022-11-20T04:54:27;5.20;99.90
14527;DHT22;7350;51.208;4.238;2022-11-20T04:56:54;5.30;99.90
14527;DHT22;7350;51.208;4.238;2022-11-20T04:59:22;5.40;99.90
14527;DHT22;7350;51.208;4.238;2022-11-20T05:01:49;5.50;99.90
14527;DHT22;7350;51.208;4.238;2022-11-20T05:04:16;5.50;99.90
14527;DHT22;7350;51.208;4.238;2022-11-20T05:06:43;5.50;99.90
14527;DHT22;7350;51.208;4.238;2022-11-20T05:09:11;5.70;99.90
14527;DHT22;7350;51.208;4.238;2022-11-20T05:11:38;5.70;99.90
14527;DHT22;7350;51.208;4.238;2022-11-20T05:14:05;5.90;99.90
14527;DHT22;7350;51.208;4.238;2022-11-20T05:16:34;5.70;99.90
14527;DHT22;7350;51.208;4.238;2022-11-20T05:19:02;5.80;99.90
14527;DHT22;7350;51.208;4.238;2022-11-20T05:21:30;5.90;99.90
14527;DHT22;7350;51.208;4.238;2022-11-20T05:23:57;5.80;99.90
14527;DHT22;7350;51.208;4.238;2022-11-20T05:26:24;5.80;99.90
14527;DHT22;7350;51.208;4.238;2022-11-20T05:28:51;5.80;99.90
14527;DHT22;7350;51.208;4.238;2022-11-20T05:31:20;5.80;99.90
14527;DHT22;7350;51.208;4.238;2022-11-20T05:33:49;5.80;99.90
14527;DHT22;7350;51.208;4.238;2022-11-20T05:36:16;5.80;99.90
14527;DHT22;7350;51.208;4.238;2022-11-20T05:38:44;5.80;99.90
14527;DHT22;7350;51.208;4.238;2022-11-20T05:41:12;5.70;99.90
14527;DHT22;7350;51.208;4.238;2022-11-20T05:43:40;5.70;99.90
14527;DHT22;7350;51.208;4.238;2022-11-20T05:46:09;5.60;99.90
14527;DHT22;7350;51.208;4.238;2022-11-20T05:48:38;5.60;99.90
14527;DHT22;7350;51.208;4.238;2022-11-20T05:51:10;5.50;99.90
14527;DHT22;7350;51.208;4.238;2022-11-20T05:53:37;5.40;99.90
14527;DHT22;7350;51.208;4.238;2022-11-20T05:56:05;5.20;99.90
14527;DHT22;7350;51.208;4.238;2022-11-20T05:58:33;5.30;99.90
14527;DHT22;7350;51.208;4.238;2022-11-20T06:01:05;5.20;99.90
14527;DHT22;7350;51.208;4.238;2022-11-20T06:03:32;5.10;99.90
14527;DHT22;7350;51.208;4.238;2022-11-20T06:05:59;5.10;99.90
14527;DHT22;7350;51.208;4.238;2022-11-20T06:08:28;5.10;99.90
14527;DHT22;7350;51.208;4.238;2022-11-20T06:10:55;5.10;99.90
14527;DHT22;7350;51.208;4.238;2022-11-20T06:13:22;5.10;99.90
14527;DHT22;7350;51.208;4.238;2022-11-20T06:15:49;5.20;99.90
14527;DHT22;7350;51.208;4.238;2022-11-20T06:18:17;5.00;99.90
14527;DHT22;7350;51.208;4.238;2022-11-20T06:20:44;4.90;99.90
14527;DHT22;7350;51.208;4.238;2022-11-20T06:23:11;4.90;99.90
14527;DHT22;7350;51.208;4.238;2022-11-20T06:25:40;4.80;99.90
14527;DHT22;7350;51.208;4.238;2022-11-20T06:28:07;4.70;99.90
14527;DHT22;7350;51.208;4.238;2022-11-20T06:30:35;4.90;99.90
14527;DHT22;7350;51.208;4.238;2022-11-20T06:33:02;4.90;99.90
14527;DHT22;7350;51.208;4.238;2022-11-20T06:35:29;5.00;99.90
14527;DHT22;7350;51.208;4.238;2022-11-20T06:37:56;4.90;99.90
14527;DHT22;7350;51.208;4.238;2022-11-20T06:40:23;4.90;99.90
14527;DHT22;7350;51.208;4.238;2022-11-20T06:42:53;5.00;99.90
14527;DHT22;7350;51.208;4.238;2022-11-20T06:45:20;5.20;99.90
14527;DHT22;7350;51.208;4.238;2022-11-20T06:47:47;5.10;99.90
14527;DHT22;7350;51.208;4.238;2022-11-20T06:50:14;5.10;99.90
14527;DHT22;7350;51.208;4.238;2022-11-20T06:52:41;5.10;99.90
14527;DHT22;7350;51.208;4.238;2022-11-20T06:55:08;5.10;99.90
14527;DHT22;7350;51.208;4.238;2022-11-20T06:57:35;5.20;99.90
14527;DHT22;7350;51.208;4.238;2022-11-20T07:00:05;5.20;99.90
14527;DHT22;7350;51.208;4.238;2022-11-20T07:02:32;5.10;99.90
14527;DHT22;7350;51.208;4.238;2022-11-20T07:04:59;5.10;99.90
14527;DHT22;7350;51.208;4.238;2022-11-20T07:07:25;5.20;99.90
14527;DHT22;7350;51.208;4.238;2022-11-20T07:09:52;5.20;99.90
14527;DHT22;7350;51.208;4.238;2022-11-20T07:12:19;5.20;99.90
14527;DHT22;7350;51.208;4.238;2022-11-20T07:14:46;5.20;99.90
14527;DHT22;7350;51.208;4.238;2022-11-20T07:17:14;5.50;99.90
14527;DHT22;7350;51.208;4.238;2022-11-20T07:19:41;5.40;99.90
14527;DHT22;7350;51.208;4.238;2022-11-20T07:22:08;5.40;99.90
14527;DHT22;7350;51.208;4.238;2022-11-20T07:24:35;5.40;99.90
14527;DHT22;7350;51.208;4.238;2022-11-20T07:27:02;5.10;99.90
14527;DHT22;7350;51.208;4.238;2022-11-20T07:29:29;5.00;99.90
14527;DHT22;7350;51.208;4.238;2022-11-20T07:31:56;5.20;99.90
14527;DHT22;7350;51.208;4.238;2022-11-20T07:34:25;5.40;99.90
14527;DHT22;7350;51.208;4.238;2022-11-20T07:36:52;5.40;99.90
14527;DHT22;7350;51.208;4.238;2022-11-20T07:39:19;5.30;99.90
14527;DHT22;7350;51.208;4.238;2022-11-20T07:41:46;5.40;99.90
14527;DHT22;7350;51.208;4.238;2022-11-20T07:44:13;5.50;99.90
14527;DHT22;7350;51.208;4.238;2022-11-20T07:46:39;5.50;99.90
14527;DHT22;7350;51.208;4.238;2022-11-20T07:49:06;5.60;99.90
14527;DHT22;7350;51.208;4.238;2022-11-20T07:51:35;5.60;99.90
14527;DHT22;7350;51.208;4.238;2022-11-20T07:54:02;5.80;99.90
14527;DHT22;7350;51.208;4.238;2022-11-20T07:56:28;5.80;99.90
14527;DHT22;7350;51.208;4.238;2022-11-20T07:58:55;5.80;99.90
14527;DHT22;7350;51.208;4.238;2022-11-20T08:01:22;5.80;99.90
14527;DHT22;7350;51.208;4.238;2022-11-20T08:03:49;5.70;99.90
14527;DHT22;7350;51.208;4.238;2022-11-20T08:06:16;5.60;99.90
14527;DHT22;7350;51.208;4.238;2022-11-20T08:08:45;5.50;99.90
14527;DHT22;7350;51.208;4.238;2022-11-20T08:11:12;5.50;99.90
14527;DHT22;7350;51.208;4.238;2022-11-20T08:13:56;5.60;99.90
14527;DHT22;7350;51.208;4.238;2022-11-20T08:16:38;5.60;99.90
14527;DHT22;7350;51.208;4.238;2022-11-20T08:19:06;5.80;99.90
14527;DHT22;7350;51.208;4.238;2022-11-20T08:21:33;5.80;99.90
14527;DHT22;7350;51.208;4.238;2022-11-20T08:24:01;5.80;99.90
14527;DHT22;7350;51.208;4.238;2022-11-20T08:26:28;5.40;99.90
14527;DHT22;7350;51.208;4.238;2022-11-20T08:28:55;5.60;99.90
14527;DHT22;7350;51.208;4.238;2022-11-20T08:31:23;5.80;99.90
14527;DHT22;7350;51.208;4.238;2022-11-20T08:33:51;5.70;99.90
14527;DHT22;7350;51.208;4.238;2022-11-20T08:36:18;5.80;99.90
14527;DHT22;7350;51.208;4.238;2022-11-20T08:38:47;5.80;99.90
14527;DHT22;7350;51.208;4.238;2022-11-20T08:41:16;5.70;99.90
14527;DHT22;7350;51.208;4.238;2022-11-20T08:43:55;5.60;99.90
14527;DHT22;7350;51.208;4.238;2022-11-20T08:46:23;5.70;99.90
14527;DHT22;7350;51.208;4.238;2022-11-20T08:48:50;5.70;99.90
14527;DHT22;7350;51.208;4.238;2022-11-20T08:51:17;5.70;99.90
14527;DHT22;7350;51.208;4.238;2022-11-20T08:53:44;5.80;99.90
14527;DHT22;7350;51.208;4.238;2022-11-20T08:56:11;5.80;99.90
14527;DHT22;7350;51.208;4.238;2022-11-20T08:58:40;5.70;99.90
14527;DHT22;7350;51.208;4.238;2022-11-20T09:01:07;5.80;99.90
14527;DHT22;7350;51.208;4.238;2022-11-20T09:03:34;5.80;99.90
14527;DHT22;7350;51.208;4.238;2022-11-20T09:06:02;5.70;99.90
14527;DHT22;7350;51.208;4.238;2022-11-20T09:08:30;5.80;99.90
14527;DHT22;7350;51.208;4.238;2022-11-20T09:10:58;5.80;99.90
14527;DHT22;7350;51.208;4.238;2022-11-20T09:13:26;5.90;99.90
14527;DHT22;7350;51.208;4.238;2022-11-20T09:15:57;6.00;99.90
14527;DHT22;7350;51.208;4.238;2022-11-20T09:18:25;6.10;99.90
14527;DHT22;7350;51.208;4.238;2022-11-20T09:20:56;6.10;99.90
14527;DHT22;7350;51.208;4.238;2022-11-20T09:23:23;6.10;99.90
14527;DHT22;7350;51.208;4.238;2022-11-20T09:25:50;5.90;99.90
14527;DHT22;7350;51.208;4.238;2022-11-20T09:28:18;6.00;99.90
14527;DHT22;7350;51.208;4.238;2022-11-20T09:30:45;6.20;99.90
14527;DHT22;7350;51.208;4.238;2022-11-20T09:33:13;6.00;99.90
14527;DHT22;7350;51.208;4.238;2022-11-20T09:35:40;6.20;99.90
14527;DHT22;7350;51.208;4.238;2022-11-20T09:38:09;6.30;99.90
14527;DHT22;7350;51.208;4.238;2022-11-20T09:40:39;6.10;99.90
14527;DHT22;7350;51.208;4.238;2022-11-20T09:43:10;6.20;99.90
14527;DHT22;7350;51.208;4.238;2022-11-20T09:45:54;6.20;99.90
14527;DHT22;7350;51.208;4.238;2022-11-20T09:48:42;6.10;99.90
14527;DHT22;7350;51.208;4.238;2022-11-20T09:51:21;6.30;99.90
14527;DHT22;7350;51.208;4.238;2022-11-20T09:53:59;6.30;99.90
14527;DHT22;7350;51.208;4.238;2022-11-20T09:56:28;6.30;99.90
14527;DHT22;7350;51.208;4.238;2022-11-20T09:58:59;6.10;99.90
14527;DHT22;7350;51.208;4.238;2022-11-20T10:01:29;6.10;99.90
14527;DHT22;7350;51.208;4.238;2022-11-20T10:04:02;6.30;99.90
14527;DHT22;7350;51.208;4.238;2022-11-20T10:06:32;6.30;99.90
14527;DHT22;7350;51.208;4.238;2022-11-20T10:09:13;6.20;99.90
14527;DHT22;7350;51.208;4.238;2022-11-20T10:11:48;6.10;99.90
14527;DHT22;7350;51.208;4.238;2022-11-20T10:14:26;6.00;99.90
14527;DHT22;7350;51.208;4.238;2022-11-20T10:17:03;6.00;99.90
14527;DHT22;7350;51.208;4.238;2022-11-20T10:19:47;6.00;99.90
14527;DHT22;7350;51.208;4.238;2022-11-20T10:22:27;6.10;99.90
14527;DHT22;7350;51.208;4.238;2022-11-20T10:25:05;6.10;99.90
14527;DHT22;7350;51.208;4.238;2022-11-20T10:27:52;6.20;99.90
14527;DHT22;7350;51.208;4.238;2022-11-20T10:30:22;6.30;99.90
14527;DHT22;7350;51.208;4.238;2022-11-20T10:32:53;6.30;99.90
14527;DHT22;7350;51.208;4.238;2022-11-20T10:35:25;6.20;99.90
14527;DHT22;7350;51.208;4.238;2022-11-20T10:37:57;6.30;99.90
14527;DHT22;7350;51.208;4.238;2022-11-20T10:40:31;6.30;99.90
14527;DHT22;7350;51.208;4.238;2022-11-20T10:43:01;6.40;99.90
14527;DHT22;7350;51.208;4.238;2022-11-20T10:45:43;6.40;99.90
14527;DHT22;7350;51.208;4.238;2022-11-20T10:48:15;6.50;99.90
14527;DHT22;7350;51.208;4.238;2022-11-20T10:50:53;6.60;99.90
14527;DHT22;7350;51.208;4.238;2022-11-20T10:53:38;6.80;99.90
14527;DHT22;7350;51.208;4.238;2022-11-20T10:56:15;6.70;99.90
14527;DHT22;7350;51.208;4.238;2022-11-20T10:58:49;6.90;99.90
14527;DHT22;7350;51.208;4.238;2022-11-20T11:01:19;7.00;99.90
14527;DHT22;7350;51.208;4.238;2022-11-20T11:03:49;6.90;99.90
14527;DHT22;7350;51.208;4.238;2022-11-20T11:06:23;7.10;99.90
14527;DHT22;7350;51.208;4.238;2022-11-20T11:08:54;7.50;99.90
14527;DHT22;7350;51.208;4.238;2022-11-20T11:11:25;7.50;99.90
14527;DHT22;7350;51.208;4.238;2022-11-20T11:13:52;7.60;99.90
14527;DHT22;7350;51.208;4.238;2022-11-20T11:16:21;7.50;99.90
14527;DHT22;7350;51.208;4.238;2022-11-20T11:18:49;7.70;99.90
14527;DHT22;7350;51.208;4.238;2022-11-20T11:21:23;7.90;99.90
14527;DHT22;7350;51.208;4.238;2022-11-20T11:23:59;7.90;99.90
14527;DHT22;7350;51.208;4.238;2022-11-20T11:26:27;7.90;99.90
14527;DHT22;7350;51.208;4.238;2022-11-20T11:28:55;7.90;99.90
14527;DHT22;7350;51.208;4.238;2022-11-20T11:31:24;8.00;99.90
14527;DHT22;7350;51.208;4.238;2022-11-20T11:33:51;7.90;99.90
14527;DHT22;7350;51.208;4.238;2022-11-20T11:36:22;7.80;99.90
14527;DHT22;7350;51.208;4.238;2022-11-20T11:38:52;7.90;99.90
14527;DHT22;7350;51.208;4.238;2022-11-20T11:41:22;8.10;99.90
14527;DHT22;7350;51.208;4.238;2022-11-20T11:43:52;8.40;99.90
14527;DHT22;7350;51.208;4.238;2022-11-20T11:46:39;8.50;99.90
14527;DHT22;7350;51.208;4.238;2022-11-20T11:49:16;8.60;99.90
14527;DHT22;7350;51.208;4.238;2022-11-20T11:52:01;8.50;99.90
14527;DHT22;7350;51.208;4.238;2022-11-20T11:54:34;8.60;99.90
14527;DHT22;7350;51.208;4.238;2022-11-20T11:57:07;8.90;99.90
14527;DHT22;7350;51.208;4.238;2022-11-20T11:59:44;9.00;99.90
14527;DHT22;7350;51.208;4.238;2022-11-20T12:02:25;9.10;99.90
14527;DHT22;7350;51.208;4.238;2022-11-20T12:04:57;9.00;99.90
14527;DHT22;7350;51.208;4.238;2022-11-20T12:07:36;8.90;99.90
14527;DHT22;7350;51.208;4.238;2022-11-20T12:10:05;9.10;99.90
14527;DHT22;7350;51.208;4.238;2022-11-20T12:12:36;9.20;99.90
14527;DHT22;7350;51.208;4.238;2022-11-20T12:15:06;9.40;99.90
14527;DHT22;7350;51.208;4.238;2022-11-20T12:17:36;9.30;99.90
14527;DHT22;7350;51.208;4.238;2022-11-20T12:20:10;9.20;99.90
14527;DHT22;7350;51.208;4.238;2022-11-20T12:22:44;9.20;99.90
14527;DHT22;7350;51.208;4.238;2022-11-20T12:25:19;9.20;99.90
14527;DHT22;7350;51.208;4.238;2022-11-20T12:28:08;9.10;99.90
14527;DHT22;7350;51.208;4.238;2022-11-20T12:30:41;9.20;99.90
14527;DHT22;7350;51.208;4.238;2022-11-20T12:33:42;9.00;99.90
14527;DHT22;7350;51.208;4.238;2022-11-20T12:36:22;9.10;99.90
14527;DHT22;7350;51.208;4.238;2022-11-20T12:39:14;9.00;99.90
14527;DHT22;7350;51.208;4.238;2022-11-20T12:41:53;8.80;99.90
14527;DHT22;7350;51.208;4.238;2022-11-20T12:47:49;8.80;99.90
14527;DHT22;7350;51.208;4.238;2022-11-20T12:50:25;8.80;99.90
14527;DHT22;7350;51.208;4.238;2022-11-20T12:52:57;8.90;99.90
14527;DHT22;7350;51.208;4.238;2022-11-20T12:55:40;8.90;99.90
14527;DHT22;7350;51.208;4.238;2022-11-20T12:58:12;8.80;99.90
14527;DHT22;7350;51.208;4.238;2022-11-20T13:00:51;8.80;99.90
14527;DHT22;7350;51.208;4.238;2022-11-20T13:03:42;8.70;99.90
14527;DHT22;7350;51.208;4.238;2022-11-20T13:06:14;8.70;99.90
14527;DHT22;7350;51.208;4.238;2022-11-20T13:08:45;8.80;99.90
14527;DHT22;7350;51.208;4.238;2022-11-20T13:11:19;8.90;99.90
14527;DHT22;7350;51.208;4.238;2022-11-20T13:14:02;9.00;99.90
14527;DHT22;7350;51.208;4.238;2022-11-20T13:16:36;9.00;99.90
14527;DHT22;7350;51.208;4.238;2022-11-20T13:19:09;8.70;99.90
14527;DHT22;7350;51.208;4.238;2022-11-20T13:21:39;8.70;99.90
14527;DHT22;7350;51.208;4.238;2022-11-20T13:24:07;8.60;99.90
14527;DHT22;7350;51.208;4.238;2022-11-20T13:26:35;8.80;99.90
14527;DHT22;7350;51.208;4.238;2022-11-20T13:29:08;8.70;99.90
14527;DHT22;7350;51.208;4.238;2022-11-20T13:31:39;8.40;99.90
14527;DHT22;7350;51.208;4.238;2022-11-20T13:34:12;8.70;99.90
14527;DHT22;7350;51.208;4.238;2022-11-20T13:36:49;8.70;99.90
14527;DHT22;7350;51.208;4.238;2022-11-20T13:39:24;8.60;99.90
14527;DHT22;7350;51.208;4.238;2022-11-20T13:41:56;8.50;99.90
14527;DHT22;7350;51.208;4.238;2022-11-20T13:44:26;8.60;99.90
14527;DHT22;7350;51.208;4.238;2022-11-20T13:46:55;8.70;99.90
14527;DHT22;7350;51.208;4.238;2022-11-20T13:49:26;8.60;99.90
14527;DHT22;7350;51.208;4.238;2022-11-20T13:52:02;8.50;99.90
14527;DHT22;7350;51.208;4.238;2022-11-20T13:54:52;8.40;99.90
14527;DHT22;7350;51.208;4.238;2022-11-20T13:57:45;8.40;99.90
14527;DHT22;7350;51.208;4.238;2022-11-20T14:00:16;8.40;99.90
14527;DHT22;7350;51.208;4.238;2022-11-20T14:02:47;8.40;99.90
14527;DHT22;7350;51.208;4.238;2022-11-20T14:05:20;8.40;99.90
14527;DHT22;7350;51.208;4.238;2022-11-20T14:07:50;8.50;99.90
14527;DHT22;7350;51.208;4.238;2022-11-20T14:10:22;8.50;99.90
14527;DHT22;7350;51.208;4.238;2022-11-20T14:12:51;8.50;99.90
14527;DHT22;7350;51.208;4.238;2022-11-20T14:15:27;8.50;99.90
14527;DHT22;7350;51.208;4.238;2022-11-20T14:17:54;8.40;99.90
14527;DHT22;7350;51.208;4.238;2022-11-20T14:20:23;8.40;99.90
14527;DHT22;7350;51.208;4.238;2022-11-20T14:22:52;8.40;99.90
14527;DHT22;7350;51.208;4.238;2022-11-20T14:25:20;8.50;99.90
14527;DHT22;7350;51.208;4.238;2022-11-20T14:27:52;8.50;99.90
14527;DHT22;7350;51.208;4.238;2022-11-20T14:30:22;8.60;99.90
14527;DHT22;7350;51.208;4.238;2022-11-20T14:32:50;8.60;99.90
14527;DHT22;7350;51.208;4.238;2022-11-20T14:35:21;8.60;99.90
14527;DHT22;7350;51.208;4.238;2022-11-20T14:37:50;8.50;99.90
14527;DHT22;7350;51.208;4.238;2022-11-20T14:40:28;8.50;99.90
14527;DHT22;7350;51.208;4.238;2022-11-20T14:42:58;8.50;99.90
14527;DHT22;7350;51.208;4.238;2022-11-20T14:45:26;8.50;99.90
14527;DHT22;7350;51.208;4.238;2022-11-20T14:47:55;8.60;99.90
14527;DHT22;7350;51.208;4.238;2022-11-20T14:50:25;8.60;99.90
14527;DHT22;7350;51.208;4.238;2022-11-20T14:52:54;8.70;99.90
14527;DHT22;7350;51.208;4.238;2022-11-20T14:55:29;8.80;99.90
14527;DHT22;7350;51.208;4.238;2022-11-20T14:58:00;8.70;99.90
14527;DHT22;7350;51.208;4.238;2022-11-20T15:00:27;8.60;99.90
14527;DHT22;7350;51.208;4.238;2022-11-20T15:02:55;8.70;99.90
14527;DHT22;7350;51.208;4.238;2022-11-20T15:05:23;8.80;99.90
14527;DHT22;7350;51.208;4.238;2022-11-20T15:08:04;8.80;99.90
14527;DHT22;7350;51.208;4.238;2022-11-20T15:10:31;8.90;99.90
14527;DHT22;7350;51.208;4.238;2022-11-20T15:13:02;9.00;99.90
14527;DHT22;7350;51.208;4.238;2022-11-20T15:15:32;9.30;99.90
14527;DHT22;7350;51.208;4.238;2022-11-20T15:18:02;9.30;99.90
14527;DHT22;7350;51.208;4.238;2022-11-20T15:20:31;9.30;99.90
14527;DHT22;7350;51.208;4.238;2022-11-20T15:22:59;9.20;99.90
14527;DHT22;7350;51.208;4.238;2022-11-20T15:25:26;9.20;99.90
14527;DHT22;7350;51.208;4.238;2022-11-20T15:27:55;9.20;99.90
14527;DHT22;7350;51.208;4.238;2022-11-20T15:30:24;9.40;99.90
14527;DHT22;7350;51.208;4.238;2022-11-20T15:32:51;9.70;99.90
14527;DHT22;7350;51.208;4.238;2022-11-20T15:35:18;9.90;99.90
14527;DHT22;7350;51.208;4.238;2022-11-20T15:37:45;9.80;99.90
14527;DHT22;7350;51.208;4.238;2022-11-20T15:40:12;9.80;99.90
14527;DHT22;7350;51.208;4.238;2022-11-20T15:42:39;9.80;99.90
14527;DHT22;7350;51.208;4.238;2022-11-20T15:45:30;9.70;99.90
14527;DHT22;7350;51.208;4.238;2022-11-20T15:47:58;9.60;99.90
14527;DHT22;7350;51.208;4.238;2022-11-20T15:50:30;9.60;99.90
14527;DHT22;7350;51.208;4.238;2022-11-20T15:52:59;9.60;99.90
14527;DHT22;7350;51.208;4.238;2022-11-20T15:55:26;9.50;99.90
14527;DHT22;7350;51.208;4.238;2022-11-20T15:57:53;9.50;99.90
14527;DHT22;7350;51.208;4.238;2022-11-20T16:00:20;9.50;99.90
14527;DHT22;7350;51.208;4.238;2022-11-20T16:02:49;9.50;99.90
14527;DHT22;7350;51.208;4.238;2022-11-20T16:05:17;9.30;99.90
14527;DHT22;7350;51.208;4.238;2022-11-20T16:07:44;9.20;99.90
14527;DHT22;7350;51.208;4.238;2022-11-20T16:10:11;9.20;99.90
14527;DHT22;7350;51.208;4.238;2022-11-20T16:12:38;9.20;99.90
14527;DHT22;7350;51.208;4.238;2022-11-20T16:15:22;9.10;99.90
14527;DHT22;7350;51.208;4.238;2022-11-20T16:18:10;9.10;99.90
14527;DHT22;7350;51.208;4.238;2022-11-20T16:20:37;9.20;99.90
14527;DHT22;7350;51.208;4.238;2022-11-20T16:23:05;9.30;99.90